Time;durP1;ratioP1;P1;durP2;ratioP2;P2;SDS_P1;SDS_P2;PMS_P1;PMS_P2;Temp;Humidity;BMP_temperature;BMP_pressure;BME280_temperature;BME280_humidity;BME280_pressure;Samples;Min_cycle;Max_cycle;Signal;HPM_P1;HPM_P2
2023/01/15 00:01:36;;;;;;;0.20;0.10;;;;;;;;;;5052235;28;20028;-85
2023/01/15 00:04:03;;;;;;;0.25;0.20;;;;;;;;;;5042649;28;20040;-84
2023/01/15 00:06:31;;;;;;;0.20;0.10;;;;;;;;;;5047502;28;20052;-84
2023/01/15 00:08:57;;;;;;;0.20;0.10;;;;;;;;;;5058874;28;20277;-84
2023/01/15 00:11:24;;;;;;;0.20;0.10;;;;;;;;;;5058314;28;20498;-86
2023/01/15 00:13:50;;;;;;;0.20;0.10;;;;;;;;;;5051082;28;20032;-85
2023/01/15 00:16:17;;;;;;;0.20;0.10;;;;;;;;;;5063139;28;20040;-84
2023/01/15 00:18:43;;;;;;;0.20;0.10;;;;;;;;;;5073994;28;20115;-86
2023/01/15 00:21:11;;;;;;;0.20;0.10;;;;;;;;;;5052580;28;20064;-82
2023/01/15 00:29:11;;;;;;;0.20;0.10;;;;;;;;;;5070954;28;20048;-84
2023/01/15 00:31:38;;;;;;;0.20;0.10;;;;;;;;;;5037898;28;20036;-85
2023/01/15 00:34:07;;;;;;;0.20;0.10;;;;;;;;;;5042965;28;20044;-83
2023/01/15 00:36:33;;;;;;;0.20;0.10;;;;;;;;;;5043488;28;20071;-84
2023/01/15 00:38:59;;;;;;;0.20;0.10;;;;;;;;;;5055763;28;20055;-83
2023/01/15 00:41:25;;;;;;;0.20;0.10;;;;;;;;;;5055916;28;20147;-82
2023/01/15 00:43:51;;;;;;;0.20;0.10;;;;;;;;;;5072715;28;20075;-86
2023/01/15 00:46:18;;;;;;;0.20;0.10;;;;;;;;;;5041989;28;20055;-86
2023/01/15 00:48:44;;;;;;;0.20;0.10;;;;;;;;;;5064207;28;20123;-86
2023/01/15 00:51:10;;;;;;;0.20;0.10;;;;;;;;;;5055388;28;20039;-85
2023/01/15 00:53:36;;;;;;;0.20;0.10;;;;;;;;;;5055180;28;20033;-84
2023/01/15 00:56:02;;;;;;;0.20;0.10;;;;;;;;;;5051949;28;20051;-84
2023/01/15 00:58:28;;;;;;;0.20;0.10;;;;;;;;;;5047052;28;20085;-82
2023/01/15 01:00:59;;;;;;;0.20;0.10;;;;;;;;;;5037904;28;20049;-83
2023/01/15 01:03:25;;;;;;;0.20;0.17;;;;;;;;;;5057708;28;20044;-86
2023/01/15 01:05:52;;;;;;;0.20;0.10;;;;;;;;;;5055432;28;20043;-84
2023/01/15 01:08:18;;;;;;;0.20;0.10;;;;;;;;;;5058954;28;20233;-85
2023/01/15 01:10:44;;;;;;;0.20;0.10;;;;;;;;;;5067979;28;20059;-84
2023/01/15 01:13:10;;;;;;;0.20;0.10;;;;;;;;;;5044691;28;20077;-85
2023/01/15 01:15:37;;;;;;;0.20;0.10;;;;;;;;;;5069508;28;20044;-85
2023/01/15 01:18:04;;;;;;;0.20;0.10;;;;;;;;;;5046895;28;20071;-85
2023/01/15 01:20:30;;;;;;;0.20;0.10;;;;;;;;;;5061884;28;20402;-85
2023/01/15 01:22:56;;;;;;;0.20;0.10;;;;;;;;;;5071512;28;20044;-85
2023/01/15 01:25:22;;;;;;;0.20;0.10;;;;;;;;;;5069859;28;20036;-83
2023/01/15 01:27:48;;;;;;;0.28;0.20;;;;;;;;;;5051431;28;20076;-83
2023/01/15 01:30:15;;;;;;;0.20;0.10;;;;;;;;;;5041655;28;20092;-82
2023/01/15 01:32:43;;;;;;;0.20;0.10;;;;;;;;;;5049750;28;20032;-85
2023/01/15 01:35:09;;;;;;;0.20;0.10;;;;;;;;;;5070849;28;20043;-85
2023/01/15 01:37:35;;;;;;;0.20;0.10;;;;;;;;;;5041503;28;20453;-85
2023/01/15 01:40:01;;;;;;;0.20;0.10;;;;;;;;;;5067975;28;21802;-85
2023/01/15 01:42:28;;;;;;;0.20;0.10;;;;;;;;;;5067951;28;20043;-83
2023/01/15 01:44:58;;;;;;;0.20;0.10;;;;;;;;;;5050361;28;20037;-86
2023/01/15 01:47:25;;;;;;;0.20;0.10;;;;;;;;;;5076249;28;20037;-83
2023/01/15 01:49:53;;;;;;;0.20;0.10;;;;;;;;;;5039300;28;20059;-84
2023/01/15 01:52:22;;;;;;;0.20;0.10;;;;;;;;;;5041092;28;20048;-85
2023/01/15 01:54:49;;;;;;;0.20;0.10;;;;;;;;;;5032405;28;20040;-86
2023/01/15 01:57:15;;;;;;;0.20;0.10;;;;;;;;;;5039059;28;20124;-83
2023/01/15 01:59:42;;;;;;;0.20;0.10;;;;;;;;;;5051517;28;20488;-86
2023/01/15 02:02:10;;;;;;;0.20;0.10;;;;;;;;;;5032416;28;20046;-85
2023/01/15 02:04:37;;;;;;;0.20;0.10;;;;;;;;;;5051906;28;20036;-85
2023/01/15 02:07:03;;;;;;;0.20;0.10;;;;;;;;;;5041016;28;20286;-85
2023/01/15 02:09:29;;;;;;;0.20;0.10;;;;;;;;;;5039164;28;20394;-87
2023/01/15 02:11:57;;;;;;;2.72;1.00;;;;;;;;;;5074419;28;20550;-84
2023/01/15 02:14:37;;;;;;;0.20;0.10;;;;;;;;;;5058314;28;21753;-85
2023/01/15 02:17:26;;;;;;;0.20;0.10;;;;;;;;;;5057267;28;20040;-84
2023/01/15 02:20:08;;;;;;;0.20;0.10;;;;;;;;;;5059300;28;20489;-85
2023/01/15 02:22:49;;;;;;;0.20;0.10;;;;;;;;;;5055199;28;20044;-84
2023/01/15 02:25:45;;;;;;;0.20;0.10;;;;;;;;;;5056729;28;20033;-83
2023/01/15 02:28:14;;;;;;;0.20;0.10;;;;;;;;;;5048249;28;20044;-85
2023/01/15 02:30:43;;;;;;;0.20;0.10;;;;;;;;;;5044321;28;20042;-84
2023/01/15 02:33:17;;;;;;;0.20;0.10;;;;;;;;;;5039166;28;20042;-85
2023/01/15 02:35:59;;;;;;;0.20;0.10;;;;;;;;;;5053140;28;20621;-83
2023/01/15 02:38:28;;;;;;;0.20;0.10;;;;;;;;;;5077329;28;20090;-83
2023/01/15 02:40:56;;;;;;;0.20;0.10;;;;;;;;;;5033944;28;20043;-86
2023/01/15 02:43:22;;;;;;;0.20;0.10;;;;;;;;;;5052300;28;20044;-84
2023/01/15 02:45:50;;;;;;;0.20;0.10;;;;;;;;;;5058590;28;20750;-85
2023/01/15 02:48:18;;;;;;;0.20;0.10;;;;;;;;;;5057860;28;20130;-85
2023/01/15 02:50:45;;;;;;;0.20;0.10;;;;;;;;;;5038663;28;20040;-83
2023/01/15 02:53:13;;;;;;;0.20;0.10;;;;;;;;;;5041898;28;20032;-86
2023/01/15 02:55:45;;;;;;;0.20;0.10;;;;;;;;;;5060906;28;21002;-84
2023/01/15 02:58:14;;;;;;;0.43;0.38;;;;;;;;;;5073319;28;20042;-84
2023/01/15 03:00:42;;;;;;;3.50;2.85;;;;;;;;;;5071106;28;21277;-85
2023/01/15 03:03:12;;;;;;;0.20;0.10;;;;;;;;;;5063045;28;20418;-85
2023/01/15 03:05:56;;;;;;;0.20;0.10;;;;;;;;;;5041711;28;20167;-83
2023/01/15 03:08:22;;;;;;;0.20;0.10;;;;;;;;;;5056164;28;20037;-82
2023/01/15 03:11:02;;;;;;;0.20;0.10;;;;;;;;;;5047069;28;20044;-85
2023/01/15 03:13:42;;;;;;;0.20;0.10;;;;;;;;;;5059670;28;20088;-85
2023/01/15 03:16:37;;;;;;;0.20;0.10;;;;;;;;;;5042706;28;20201;-85
2023/01/15 03:19:09;;;;;;;0.63;0.22;;;;;;;;;;5045332;28;20518;-84
2023/01/15 03:21:50;;;;;;;0.20;0.10;;;;;;;;;;5055145;28;20495;-84
2023/01/15 03:24:21;;;;;;;0.20;0.10;;;;;;;;;;5051751;28;20042;-84
2023/01/15 03:26:47;;;;;;;0.20;0.10;;;;;;;;;;5081881;28;20037;-84
2023/01/15 03:29:13;;;;;;;0.20;0.10;;;;;;;;;;5074593;28;20077;-84
2023/01/15 03:31:40;;;;;;;0.20;0.10;;;;;;;;;;5061191;28;20040;-86
2023/01/15 03:34:06;;;;;;;0.20;0.10;;;;;;;;;;5045468;28;20040;-85
2023/01/15 03:36:32;;;;;;;0.20;0.10;;;;;;;;;;5064299;28;20089;-83
2023/01/15 03:38:59;;;;;;;0.20;0.10;;;;;;;;;;5072980;28;20050;-84
2023/01/15 03:41:28;;;;;;;0.20;0.10;;;;;;;;;;5041978;28;20071;-82
2023/01/15 03:44:03;;;;;;;0.20;0.10;;;;;;;;;;5059230;28;20503;-83
2023/01/15 03:46:39;;;;;;;0.20;0.10;;;;;;;;;;5042562;28;20032;-82
2023/01/15 03:49:09;;;;;;;0.20;0.10;;;;;;;;;;5064864;28;20044;-83
2023/01/15 03:51:38;;;;;;;0.20;0.10;;;;;;;;;;5058023;28;20032;-84
2023/01/15 03:54:06;;;;;;;0.20;0.10;;;;;;;;;;5060687;28;20051;-83
2023/01/15 03:56:36;;;;;;;0.20;0.10;;;;;;;;;;5061047;28;20040;-85
2023/01/15 03:59:05;;;;;;;0.20;0.10;;;;;;;;;;5057717;28;20070;-85
2023/01/15 04:01:34;;;;;;;0.20;0.10;;;;;;;;;;5036828;28;20093;-87
2023/01/15 04:04:01;;;;;;;0.20;0.10;;;;;;;;;;5056687;28;20558;-83
2023/01/15 04:06:28;;;;;;;0.20;0.10;;;;;;;;;;5055058;28;20521;-85
2023/01/15 04:08:54;;;;;;;0.20;0.20;;;;;;;;;;5052048;28;20092;-86
2023/01/15 04:11:23;;;;;;;0.20;0.10;;;;;;;;;;5052962;28;20032;-84
2023/01/15 04:13:49;;;;;;;0.20;0.10;;;;;;;;;;5053191;28;20153;-84
2023/01/15 04:16:18;;;;;;;0.20;0.10;;;;;;;;;;5052710;28;20134;-85
2023/01/15 04:18:44;;;;;;;0.20;0.10;;;;;;;;;;5034492;28;20044;-84
2023/01/15 04:21:10;;;;;;;0.20;0.10;;;;;;;;;;5067741;28;20391;-87
2023/01/15 04:23:36;;;;;;;0.20;0.10;;;;;;;;;;5039290;28;20044;-84
2023/01/15 04:26:02;;;;;;;0.20;0.10;;;;;;;;;;5052728;28;20051;-86
2023/01/15 04:28:28;;;;;;;0.20;0.10;;;;;;;;;;5054797;28;20036;-85
2023/01/15 04:30:56;;;;;;;0.20;0.10;;;;;;;;;;5075726;28;20041;-85
2023/01/15 04:33:22;;;;;;;0.20;0.10;;;;;;;;;;5045087;28;20036;-83
2023/01/15 04:35:48;;;;;;;0.20;0.10;;;;;;;;;;5065404;28;20814;-83
2023/01/15 04:38:14;;;;;;;0.20;0.10;;;;;;;;;;5047051;28;20473;-86
2023/01/15 04:46:10;;;;;;;0.20;0.10;;;;;;;;;;5073620;28;20100;-85
2023/01/15 04:48:38;;;;;;;0.20;0.10;;;;;;;;;;5059771;28;20525;-83
2023/01/15 04:51:04;;;;;;;0.20;0.10;;;;;;;;;;5055185;28;20036;-81
2023/01/15 04:53:30;;;;;;;0.20;0.17;;;;;;;;;;5068287;28;20118;-83
2023/01/15 04:56:00;;;;;;;0.20;0.10;;;;;;;;;;5038448;28;20757;-82
2023/01/15 04:58:27;;;;;;;0.20;0.10;;;;;;;;;;5076432;28;20044;-88
2023/01/15 05:00:53;;;;;;;0.20;0.10;;;;;;;;;;5059150;28;20166;-84
2023/01/15 05:03:19;;;;;;;0.20;0.10;;;;;;;;;;5061222;28;20083;-83
2023/01/15 05:05:45;;;;;;;0.20;0.10;;;;;;;;;;5040583;28;20494;-85
2023/01/15 05:08:13;;;;;;;0.20;0.10;;;;;;;;;;5049707;28;20069;-85
2023/01/15 05:10:39;;;;;;;0.20;0.10;;;;;;;;;;5053009;28;20402;-83
2023/01/15 05:13:05;;;;;;;0.20;0.10;;;;;;;;;;5050964;28;20032;-82
2023/01/15 05:15:31;;;;;;;0.20;0.10;;;;;;;;;;5047555;28;20063;-84
2023/01/15 05:17:57;;;;;;;0.20;0.10;;;;;;;;;;5033414;28;20120;-85
2023/01/15 05:20:23;;;;;;;0.20;0.10;;;;;;;;;;5051607;28;20516;-84
2023/01/15 05:22:49;;;;;;;0.20;0.10;;;;;;;;;;5032777;28;20036;-86
2023/01/15 05:25:15;;;;;;;0.20;0.10;;;;;;;;;;5034586;28;20510;-84
2023/01/15 05:27:44;;;;;;;0.20;0.10;;;;;;;;;;5066105;28;20067;-84
2023/01/15 05:30:11;;;;;;;0.20;0.10;;;;;;;;;;5054765;28;20105;-83
2023/01/15 05:32:37;;;;;;;0.20;0.10;;;;;;;;;;5072697;28;20040;-85
2023/01/15 05:35:03;;;;;;;0.20;0.10;;;;;;;;;;5070682;28;20079;-83
2023/01/15 05:37:29;;;;;;;0.20;0.10;;;;;;;;;;5052116;28;20037;-83
2023/01/15 05:39:55;;;;;;;0.20;0.10;;;;;;;;;;5035143;28;20042;-85
2023/01/15 05:42:21;;;;;;;0.20;0.10;;;;;;;;;;5037388;28;20394;-83
2023/01/15 05:44:47;;;;;;;0.20;0.10;;;;;;;;;;5051018;28;20044;-84
2023/01/15 05:47:13;;;;;;;0.20;0.10;;;;;;;;;;5053516;28;20135;-85
2023/01/15 05:49:39;;;;;;;0.20;0.10;;;;;;;;;;5056363;28;20433;-86
2023/01/15 05:52:07;;;;;;;0.20;0.10;;;;;;;;;;5044514;28;20040;-83
2023/01/15 05:54:34;;;;;;;0.20;0.10;;;;;;;;;;5055961;28;20044;-85
2023/01/15 05:57:00;;;;;;;0.20;0.10;;;;;;;;;;5075636;22;20040;-87
2023/01/15 05:59:27;;;;;;;0.20;0.10;;;;;;;;;;5019766;28;20041;-87
2023/01/15 06:01:53;;;;;;;0.20;0.10;;;;;;;;;;5041262;28;20064;-86
2023/01/15 06:04:20;;;;;;;0.20;0.10;;;;;;;;;;5003505;28;20623;-88
2023/01/15 06:06:47;;;;;;;0.20;0.10;;;;;;;;;;5021592;28;20041;-87
2023/01/15 06:09:13;;;;;;;0.20;0.10;;;;;;;;;;5003050;28;20060;-87
2023/01/15 06:11:40;;;;;;;0.20;0.10;;;;;;;;;;4995748;28;22435;-86
2023/01/15 06:14:06;;;;;;;0.20;0.10;;;;;;;;;;4992055;28;20038;-85
2023/01/15 06:16:33;;;;;;;0.20;0.10;;;;;;;;;;4995232;28;20041;-84
2023/01/15 06:19:03;;;;;;;0.20;0.10;;;;;;;;;;4996787;28;20048;-87
2023/01/15 06:21:29;;;;;;;0.22;0.15;;;;;;;;;;5008306;28;20040;-87
2023/01/15 06:23:55;;;;;;;0.20;0.10;;;;;;;;;;5028283;28;20034;-85
2023/01/15 06:26:21;;;;;;;0.20;0.10;;;;;;;;;;4992120;28;20041;-86
2023/01/15 06:28:47;;;;;;;0.20;0.10;;;;;;;;;;5016184;28;20032;-82
2023/01/15 06:31:18;;;;;;;0.20;0.10;;;;;;;;;;5009853;28;20044;-90
2023/01/15 06:33:45;;;;;;;0.77;0.63;;;;;;;;;;5008097;28;20106;-85
2023/01/15 06:36:12;;;;;;;0.20;0.10;;;;;;;;;;5006587;28;20033;-86
2023/01/15 06:38:38;;;;;;;0.20;0.10;;;;;;;;;;4997261;28;20056;-88
2023/01/15 06:47:19;;;;;;;0.20;0.10;;;;;;;;;;5028164;28;20109;-86
2023/01/15 06:49:24;;;;;;;0.45;0.45;;;;;;;;;;5010574;28;20484;-87
2023/01/15 06:51:50;;;;;;;0.25;0.20;;;;;;;;;;5006254;28;20087;-87
2023/01/15 06:54:19;;;;;;;0.20;0.10;;;;;;;;;;5006439;28;20140;-87
2023/01/15 06:56:45;;;;;;;0.20;0.10;;;;;;;;;;5019683;28;20045;-87
2023/01/15 06:59:11;;;;;;;0.20;0.10;;;;;;;;;;5010971;28;20184;-86
2023/01/15 07:01:37;;;;;;;0.20;0.10;;;;;;;;;;5019197;28;20523;-87
2023/01/15 07:04:06;;;;;;;0.20;0.17;;;;;;;;;;5017706;28;20139;-86
2023/01/15 07:06:32;;;;;;;0.20;0.10;;;;;;;;;;5009140;28;20121;-87
2023/01/15 07:08:58;;;;;;;0.20;0.10;;;;;;;;;;5018879;28;20079;-83
2023/01/15 07:11:25;;;;;;;0.20;0.10;;;;;;;;;;4997309;28;20034;-85
2023/01/15 07:14:04;;;;;;;0.45;0.40;;;;;;;;;;5024625;28;20083;-88
2023/01/15 07:16:30;;;;;;;0.20;0.10;;;;;;;;;;4996037;28;20322;-86
2023/01/15 07:18:56;;;;;;;0.20;0.10;;;;;;;;;;4994177;28;20056;-88
2023/01/15 07:21:22;;;;;;;0.20;0.10;;;;;;;;;;5002282;28;20040;-86
2023/01/15 07:23:48;;;;;;;0.20;0.10;;;;;;;;;;5018412;28;20385;-86
2023/01/15 07:26:15;;;;;;;0.20;0.15;;;;;;;;;;5003974;28;20029;-86
2023/01/15 07:28:41;;;;;;;0.20;0.10;;;;;;;;;;5025632;28;20151;-85
2023/01/15 07:31:16;;;;;;;0.55;0.55;;;;;;;;;;4997575;28;20037;-89
2023/01/15 07:33:48;;;;;;;0.20;0.10;;;;;;;;;;5018733;28;20040;-86
2023/01/15 07:36:14;;;;;;;0.20;0.10;;;;;;;;;;5013648;28;20041;-89
2023/01/15 07:38:40;;;;;;;0.20;0.10;;;;;;;;;;5014268;28;20044;-83
2023/01/15 07:52:11;;;;;;;0.20;0.10;;;;;;;;;;5022579;28;20041;-87
2023/01/15 07:54:37;;;;;;;0.20;0.10;;;;;;;;;;5017017;28;20045;-86
2023/01/15 07:57:03;;;;;;;0.20;0.10;;;;;;;;;;5025852;28;20049;-84
2023/01/15 07:59:32;;;;;;;0.20;0.10;;;;;;;;;;5014671;28;20507;-84
2023/01/15 08:01:58;;;;;;;0.20;0.10;;;;;;;;;;5008435;28;20040;-84
2023/01/15 08:04:24;;;;;;;0.20;0.20;;;;;;;;;;5028871;28;20040;-88
2023/01/15 08:06:53;;;;;;;0.20;0.10;;;;;;;;;;5018018;28;20120;-89
2023/01/15 08:09:19;;;;;;;0.20;0.10;;;;;;;;;;4998270;28;20029;-86
2023/01/15 08:17:14;;;;;;;0.20;0.10;;;;;;;;;;5016487;28;20037;-86
2023/01/15 08:19:40;;;;;;;0.20;0.10;;;;;;;;;;5004368;28;20527;-84
2023/01/15 08:22:13;;;;;;;0.20;0.10;;;;;;;;;;5006316;28;20041;-85
2023/01/15 08:24:45;;;;;;;0.20;0.10;;;;;;;;;;5011166;28;20051;-88
2023/01/15 08:27:19;;;;;;;0.20;0.10;;;;;;;;;;5005614;28;20373;-86
2023/01/15 08:29:45;;;;;;;0.20;0.10;;;;;;;;;;5021396;28;20558;-84
2023/01/15 08:32:11;;;;;;;0.20;0.10;;;;;;;;;;5025951;28;20044;-86
2023/01/15 08:34:38;;;;;;;0.20;0.10;;;;;;;;;;5018300;28;20079;-87
2023/01/15 08:37:13;;;;;;;0.20;0.10;;;;;;;;;;5000731;28;20045;-84
2023/01/15 08:39:43;;;;;;;0.20;0.10;;;;;;;;;;4996713;28;20712;-85
2023/01/15 08:42:09;;;;;;;0.20;0.10;;;;;;;;;;5017448;28;20045;-83
2023/01/15 08:44:41;;;;;;;0.20;0.10;;;;;;;;;;5019578;28;20049;-87
2023/01/15 08:47:07;;;;;;;2.45;1.33;;;;;;;;;;5023328;28;20033;-86
2023/01/15 08:49:37;;;;;;;0.20;0.10;;;;;;;;;;5040764;28;20041;-87
2023/01/15 08:52:03;;;;;;;0.20;0.10;;;;;;;;;;5013783;28;20121;-85
2023/01/15 08:54:29;;;;;;;0.20;0.10;;;;;;;;;;5010116;28;20077;-86
2023/01/15 08:56:58;;;;;;;0.20;0.20;;;;;;;;;;5021852;28;20033;-88
2023/01/15 08:59:32;;;;;;;0.20;0.10;;;;;;;;;;5025327;28;20032;-83
2023/01/15 09:01:58;;;;;;;0.20;0.10;;;;;;;;;;5002715;28;20137;-87
2023/01/15 09:04:24;;;;;;;0.20;0.10;;;;;;;;;;5003259;28;20886;-84
2023/01/15 09:06:53;;;;;;;0.20;0.10;;;;;;;;;;5015610;28;20451;-84
2023/01/15 09:09:19;;;;;;;0.20;0.10;;;;;;;;;;4997301;28;20033;-86
2023/01/15 09:11:45;;;;;;;0.20;0.10;;;;;;;;;;5029815;28;20056;-84
2023/01/15 09:14:18;;;;;;;0.20;0.10;;;;;;;;;;5033163;28;20057;-85
2023/01/15 09:16:49;;;;;;;0.20;0.10;;;;;;;;;;5003601;28;20037;-87
2023/01/15 09:19:15;;;;;;;0.20;0.10;;;;;;;;;;4997104;28;20390;-86
2023/01/15 09:21:44;;;;;;;0.20;0.10;;;;;;;;;;4999605;28;20036;-85
2023/01/15 09:24:10;;;;;;;0.20;0.10;;;;;;;;;;5017444;28;20521;-84
2023/01/15 09:26:40;;;;;;;0.20;0.10;;;;;;;;;;5009196;28;20038;-86
2023/01/15 09:29:07;;;;;;;0.20;0.10;;;;;;;;;;5010289;28;20102;-82
2023/01/15 09:31:37;;;;;;;0.20;0.10;;;;;;;;;;5006223;28;20029;-85
2023/01/15 09:34:03;;;;;;;0.20;0.10;;;;;;;;;;4997825;28;20499;-89
2023/01/15 09:36:30;;;;;;;0.20;0.10;;;;;;;;;;5006986;28;20053;-82
2023/01/15 09:38:57;;;;;;;0.20;0.10;;;;;;;;;;5033904;28;20610;-85
2023/01/15 09:44:22;;;;;;;0.20;0.10;;;;;;;;;;5016209;28;20045;-85
2023/01/15 09:46:57;;;;;;;0.20;0.10;;;;;;;;;;5013255;28;20060;-87
2023/01/15 09:49:38;;;;;;;0.20;0.10;;;;;;;;;;5004576;28;20067;-87
2023/01/15 09:52:27;;;;;;;0.20;0.10;;;;;;;;;;4999610;28;20060;-87
2023/01/15 09:55:06;;;;;;;0.20;0.10;;;;;;;;;;5015519;28;20068;-85
2023/01/15 09:57:36;;;;;;;0.20;0.10;;;;;;;;;;5024393;28;20088;-85
2023/01/15 10:00:04;;;;;;;0.20;0.10;;;;;;;;;;5012767;28;20037;-85
2023/01/15 10:02:37;;;;;;;0.20;0.10;;;;;;;;;;4997985;28;20044;-86
2023/01/15 10:05:25;;;;;;;0.20;0.10;;;;;;;;;;5007339;28;20049;-84
2023/01/15 10:08:00;;;;;;;0.20;0.10;;;;;;;;;;5018013;28;20041;-85
2023/01/15 10:10:41;;;;;;;0.20;0.10;;;;;;;;;;5022402;28;20111;-86
2023/01/15 10:13:22;;;;;;;0.20;0.10;;;;;;;;;;5006983;28;20052;-87
2023/01/15 10:15:50;;;;;;;0.20;0.10;;;;;;;;;;5001298;28;20651;-84
2023/01/15 10:18:21;;;;;;;0.20;0.10;;;;;;;;;;4995450;28;20063;-86
2023/01/15 10:21:04;;;;;;;0.20;0.10;;;;;;;;;;5000380;28;20043;-85
2023/01/15 10:23:51;;;;;;;0.20;0.10;;;;;;;;;;5005262;28;20578;-88
2023/01/15 10:26:17;;;;;;;0.20;0.10;;;;;;;;;;5006116;28;20075;-85
2023/01/15 10:28:56;;;;;;;0.20;0.10;;;;;;;;;;5017002;28;20495;-82
2023/01/15 10:31:46;;;;;;;0.20;0.10;;;;;;;;;;5012683;28;20036;-85
2023/01/15 10:34:24;;;;;;;0.20;0.10;;;;;;;;;;5013137;28;20060;-87
2023/01/15 10:36:57;;;;;;;0.20;0.10;;;;;;;;;;5015649;28;20534;-83
2023/01/15 10:39:40;;;;;;;0.20;0.10;;;;;;;;;;5036446;28;20488;-85
2023/01/15 10:42:32;;;;;;;0.20;0.10;;;;;;;;;;5025548;28;20076;-87
2023/01/15 10:45:01;;;;;;;0.20;0.10;;;;;;;;;;5017155;28;20089;-85
2023/01/15 10:47:34;;;;;;;0.20;0.10;;;;;;;;;;5032149;28;20037;-86
2023/01/15 10:50:12;;;;;;;0.20;0.10;;;;;;;;;;5002928;28;20127;-86
2023/01/15 10:52:40;;;;;;;2.10;1.30;;;;;;;;;;5040946;28;20037;-84
2023/01/15 10:55:25;;;;;;;0.20;0.10;;;;;;;;;;4998549;28;20655;-87
2023/01/15 10:58:13;;;;;;;0.20;0.10;;;;;;;;;;4998857;28;20052;-86
2023/01/15 11:00:39;;;;;;;0.20;0.10;;;;;;;;;;5027950;28;20037;-86
2023/01/15 11:03:20;;;;;;;0.20;0.10;;;;;;;;;;5013501;28;20045;-89
2023/01/15 11:05:49;;;;;;;0.20;0.10;;;;;;;;;;4996896;28;20042;-85
2023/01/15 11:08:32;;;;;;;0.20;0.10;;;;;;;;;;5018788;28;20045;-84
2023/01/15 11:11:04;;;;;;;0.20;0.10;;;;;;;;;;4998170;28;20041;-86
2023/01/15 11:19:36;;;;;;;0.20;0.10;;;;;;;;;;5008576;28;20361;-86
2023/01/15 11:22:07;;;;;;;0.20;0.10;;;;;;;;;;5012164;28;20049;-86
2023/01/15 11:24:36;;;;;;;0.20;0.10;;;;;;;;;;4999246;28;20037;-84
2023/01/15 11:27:02;;;;;;;0.20;0.10;;;;;;;;;;5002722;28;20072;-85
2023/01/15 11:29:35;;;;;;;0.20;0.10;;;;;;;;;;5018910;28;20408;-85
2023/01/15 11:32:01;;;;;;;0.20;0.10;;;;;;;;;;5013745;28;20060;-87
2023/01/15 11:34:28;;;;;;;0.20;0.10;;;;;;;;;;5014011;28;20431;-87
2023/01/15 11:37:04;;;;;;;0.20;0.10;;;;;;;;;;5007705;28;20044;-85
2023/01/15 11:39:30;;;;;;;0.20;0.10;;;;;;;;;;5014608;28;20116;-84
2023/01/15 11:51:02;;;;;;;0.20;0.10;;;;;;;;;;4939762;28;20043;-84
2023/01/15 11:53:33;;;;;;;0.20;0.10;;;;;;;;;;4990892;28;20046;-83
2023/01/15 11:56:01;;;;;;;0.20;0.10;;;;;;;;;;5031243;28;21260;-88
2023/01/15 11:58:46;;;;;;;0.20;0.10;;;;;;;;;;5069492;22;20568;-89
2023/01/15 12:01:32;;;;;;;0.20;0.10;;;;;;;;;;5057986;28;20068;-84
2023/01/15 12:03:59;;;;;;;0.20;0.10;;;;;;;;;;5041267;28;21276;-84
2023/01/15 12:06:27;;;;;;;0.20;0.10;;;;;;;;;;5064199;28;20518;-85
2023/01/15 12:09:08;;;;;;;0.20;0.10;;;;;;;;;;5051542;28;20041;-85
2023/01/15 12:11:37;;;;;;;0.20;0.10;;;;;;;;;;5052882;28;20047;-85
2023/01/15 12:14:13;;;;;;;0.20;0.10;;;;;;;;;;5037976;28;20522;-87
2023/01/15 12:16:52;;;;;;;0.20;0.10;;;;;;;;;;5033744;28;20797;-89
2023/01/15 12:19:43;;;;;;;0.20;0.10;;;;;;;;;;5037385;28;20055;-86
2023/01/15 12:22:13;;;;;;;0.20;0.10;;;;;;;;;;5033481;28;20051;-85
2023/01/15 12:24:39;;;;;;;0.20;0.10;;;;;;;;;;5035232;28;20051;-85
2023/01/15 12:27:11;;;;;;;0.20;0.10;;;;;;;;;;5032864;28;20048;-82
2023/01/15 12:29:42;;;;;;;0.20;0.10;;;;;;;;;;5056440;28;20555;-86
2023/01/15 12:32:10;;;;;;;0.20;0.10;;;;;;;;;;5041457;28;20137;-88
2023/01/15 12:34:42;;;;;;;0.20;0.10;;;;;;;;;;5035900;28;20069;-83
2023/01/15 12:37:22;;;;;;;0.20;0.10;;;;;;;;;;5058607;28;20545;-85
2023/01/15 12:39:55;;;;;;;0.20;0.10;;;;;;;;;;5045745;28;20036;-82
2023/01/15 12:45:32;;;;;;;0.20;0.10;;;;;;;;;;5036122;28;20067;-86
2023/01/15 12:48:06;;;;;;;0.20;0.10;;;;;;;;;;5031679;28;20048;-83
2023/01/15 12:50:43;;;;;;;0.20;0.10;;;;;;;;;;5047051;28;20060;-86
2023/01/15 12:53:09;;;;;;;0.20;0.10;;;;;;;;;;5033593;28;20119;-86
2023/01/15 12:55:38;;;;;;;0.20;0.10;;;;;;;;;;5030755;28;20045;-85
2023/01/15 12:58:11;;;;;;;0.20;0.10;;;;;;;;;;5018935;28;20410;-85
2023/01/15 13:00:41;;;;;;;0.20;0.10;;;;;;;;;;5034526;28;20044;-85
2023/01/15 13:03:24;;;;;;;0.20;0.10;;;;;;;;;;5033013;28;20048;-85
2023/01/15 13:05:52;;;;;;;0.20;0.10;;;;;;;;;;5032803;28;20052;-86
2023/01/15 13:08:40;;;;;;;0.20;0.10;;;;;;;;;;5035094;28;20041;-84
2023/01/15 13:11:12;;;;;;;0.20;0.10;;;;;;;;;;5021198;28;20041;-83
2023/01/15 13:13:40;;;;;;;0.20;0.10;;;;;;;;;;5049945;28;21979;-83
2023/01/15 13:16:06;;;;;;;0.38;0.38;;;;;;;;;;5054801;28;20185;-86
2023/01/15 13:18:38;;;;;;;0.20;0.10;;;;;;;;;;5028666;28;20090;-85
2023/01/15 13:21:10;;;;;;;0.20;0.10;;;;;;;;;;5050186;28;20040;-85
2023/01/15 13:23:55;;;;;;;0.20;0.10;;;;;;;;;;5055951;28;20472;-85
2023/01/15 13:26:40;;;;;;;0.20;0.10;;;;;;;;;;5033437;28;20082;-86
2023/01/15 13:29:19;;;;;;;0.20;0.10;;;;;;;;;;5037002;28;20071;-84
2023/01/15 13:32:00;;;;;;;0.20;0.10;;;;;;;;;;5024357;28;20044;-85
2023/01/15 13:34:30;;;;;;;0.20;0.10;;;;;;;;;;5036905;28;20167;-88
2023/01/15 13:37:02;;;;;;;0.20;0.10;;;;;;;;;;5048660;28;20329;-86
2023/01/15 13:39:43;;;;;;;0.20;0.10;;;;;;;;;;5028166;28;20486;-85
2023/01/15 13:42:32;;;;;;;0.20;0.10;;;;;;;;;;5035637;28;20079;-84
2023/01/15 13:45:17;;;;;;;0.20;0.10;;;;;;;;;;5050252;28;20048;-85
2023/01/15 13:47:45;;;;;;;0.20;0.10;;;;;;;;;;5033216;28;20098;-84
2023/01/15 13:50:16;;;;;;;0.20;0.10;;;;;;;;;;5038315;28;20044;-84
2023/01/15 13:52:42;;;;;;;0.20;0.10;;;;;;;;;;5051752;28;20041;-86
2023/01/15 13:55:26;;;;;;;0.20;0.10;;;;;;;;;;5032415;28;20044;-83
2023/01/15 13:57:52;;;;;;;0.20;0.10;;;;;;;;;;5047615;28;20063;-84
2023/01/15 14:00:33;;;;;;;0.20;0.10;;;;;;;;;;5049886;28;20473;-86
2023/01/15 14:03:01;;;;;;;0.20;0.10;;;;;;;;;;5027322;28;20079;-84
2023/01/15 14:05:29;;;;;;;0.20;0.10;;;;;;;;;;5058957;28;20135;-84
2023/01/15 14:07:55;;;;;;;0.73;0.20;;;;;;;;;;5035392;28;20411;-87
2023/01/15 14:10:35;;;;;;;0.20;0.10;;;;;;;;;;5049643;28;20045;-87
2023/01/15 14:13:21;;;;;;;0.20;0.10;;;;;;;;;;5037058;28;20037;-89
2023/01/15 14:15:52;;;;;;;0.20;0.10;;;;;;;;;;5048877;28;20041;-87
2023/01/15 14:18:40;;;;;;;0.20;0.10;;;;;;;;;;5049736;28;20149;-84
2023/01/15 14:21:12;;;;;;;0.20;0.10;;;;;;;;;;5034761;28;20470;-87
2023/01/15 14:23:52;;;;;;;0.20;0.10;;;;;;;;;;5054714;28;20044;-85
2023/01/15 14:26:33;;;;;;;0.20;0.10;;;;;;;;;;5035229;28;20062;-86
2023/01/15 14:29:24;;;;;;;0.20;0.10;;;;;;;;;;5032641;28;20049;-85
2023/01/15 14:31:57;;;;;;;0.20;0.10;;;;;;;;;;5031805;28;20044;-91
2023/01/15 14:34:28;;;;;;;0.20;0.10;;;;;;;;;;5048788;28;20039;-85
2023/01/15 14:37:03;;;;;;;0.20;0.10;;;;;;;;;;5040541;28;20400;-85
2023/01/15 14:39:59;;;;;;;0.20;0.10;;;;;;;;;;5032561;28;20812;-87
2023/01/15 14:45:12;;;;;;;0.20;0.10;;;;;;;;;;5038687;28;21061;-86
2023/01/15 14:47:55;;;;;;;0.20;0.10;;;;;;;;;;5032906;28;20049;-85
2023/01/15 14:50:24;;;;;;;0.20;0.10;;;;;;;;;;5031123;28;20119;-86
2023/01/15 14:52:52;;;;;;;0.20;0.10;;;;;;;;;;5032596;28;20395;-87
2023/01/15 14:55:19;;;;;;;0.20;0.10;;;;;;;;;;5046499;28;20041;-84
2023/01/15 14:57:49;;;;;;;0.20;0.10;;;;;;;;;;5036176;28;20493;-87
2023/01/15 15:00:17;;;;;;;0.20;0.10;;;;;;;;;;5030936;28;20045;-84
2023/01/15 15:02:43;;;;;;;0.20;0.10;;;;;;;;;;5034528;28;20051;-84
2023/01/15 15:05:14;;;;;;;0.20;0.10;;;;;;;;;;5033498;28;20591;-84
2023/01/15 15:07:43;;;;;;;0.20;0.10;;;;;;;;;;5047831;28;20036;-85
2023/01/15 15:10:17;;;;;;;0.20;0.10;;;;;;;;;;5032724;28;20044;-86
2023/01/15 15:12:43;;;;;;;0.20;0.10;;;;;;;;;;5019124;28;20036;-87
2023/01/15 15:15:22;;;;;;;0.20;0.10;;;;;;;;;;5031603;28;20044;-85
2023/01/15 15:17:48;;;;;;;0.20;0.10;;;;;;;;;;5034721;28;20041;-86
2023/01/15 15:20:30;;;;;;;0.20;0.10;;;;;;;;;;5035627;28;20480;-85
2023/01/15 15:22:59;;;;;;;0.20;0.17;;;;;;;;;;5038967;28;20045;-84
2023/01/15 15:25:27;;;;;;;0.20;0.15;;;;;;;;;;5023386;28;20134;-89
2023/01/15 15:28:03;;;;;;;0.20;0.10;;;;;;;;;;5052615;28;20040;-85
2023/01/15 15:30:31;;;;;;;0.20;0.10;;;;;;;;;;5037257;28;20041;-88
2023/01/15 15:33:00;;;;;;;0.30;0.30;;;;;;;;;;5032970;28;20033;-85
2023/01/15 15:35:28;;;;;;;3.22;0.43;;;;;;;;;;5052249;28;20045;-87
2023/01/15 15:37:59;;;;;;;0.20;0.10;;;;;;;;;;5035154;28;20080;-87
2023/01/15 15:40:31;;;;;;;0.20;0.10;;;;;;;;;;5026812;28;20203;-86
2023/01/15 15:48:40;;;;;;;0.20;0.10;;;;;;;;;;5054749;28;20503;-83
2023/01/15 15:49:04;;;;;;;0.20;0.10;;;;;;;;;;5033597;28;20084;-85
2023/01/15 15:51:30;;;;;;;0.20;0.10;;;;;;;;;;5034391;28;20033;-85
2023/01/15 15:54:15;;;;;;;0.20;0.10;;;;;;;;;;5035760;28;20037;-85
2023/01/15 15:56:58;;;;;;;0.20;0.10;;;;;;;;;;5037719;28;20036;-88
2023/01/15 15:59:32;;;;;;;0.20;0.10;;;;;;;;;;5037190;28;20044;-84
2023/01/15 16:02:14;;;;;;;0.20;0.10;;;;;;;;;;5041783;28;20126;-86
2023/01/15 16:04:44;;;;;;;0.20;0.10;;;;;;;;;;5052414;28;20037;-84